createdAt,value
2022-10-07T06:50:31.229Z,10.98
2022-10-07T06:53:05.923Z,9.77
2022-10-07T06:55:41.133Z,10.13
2022-10-07T07:00:50.858Z,10.38
2022-10-07T07:03:28.665Z,10.90
2022-10-07T07:06:05.679Z,9.27
2022-10-07T07:08:42.067Z,10.88
2022-10-07T07:11:42.192Z,10.95
2022-10-07T07:14:27.069Z,11.57
2022-10-07T07:17:07.926Z,11.00
2022-10-07T07:19:42.650Z,11.45
2022-10-07T07:22:18.064Z,12.93
2022-10-07T07:24:52.555Z,13.43
2022-10-07T07:27:26.834Z,11.52
2022-10-07T07:30:01.124Z,11.35
2022-10-07T07:32:35.191Z,10.70
2022-10-07T07:35:10.185Z,10.10
2022-10-07T07:37:45.823Z,11.82
2022-10-07T07:40:20.507Z,9.18
2022-10-07T07:42:56.223Z,10.25
2022-10-07T07:45:33.158Z,9.25
2022-10-07T07:48:07.428Z,9.95
2022-10-07T07:50:44.095Z,10.00
2022-10-07T07:53:19.857Z,8.65
2022-10-07T07:55:55.069Z,8.85
2022-10-07T07:58:30.108Z,9.40
2022-10-07T08:01:07.535Z,8.48
2022-10-07T08:03:43.666Z,8.48
2022-10-07T08:06:20.567Z,8.88
2022-10-07T08:08:57.524Z,8.25
2022-10-07T08:11:32.913Z,8.50
2022-10-07T08:14:08.187Z,7.65
2022-10-07T08:16:43.647Z,8.25
2022-10-07T08:19:18.135Z,8.20
2022-10-07T08:21:52.516Z,7.85
2022-10-07T08:24:32.400Z,7.63
2022-10-07T08:27:06.248Z,7.35
2022-10-07T08:29:41.666Z,7.03
2022-10-07T08:32:17.334Z,6.70
2022-10-07T08:34:51.160Z,6.80
2022-10-07T08:40:00.108Z,6.75
2022-10-07T08:42:38.708Z,6.82
2022-10-07T08:45:21.207Z,5.93
2022-10-07T08:47:57.032Z,6.40
2022-10-07T08:50:39.704Z,6.28
2022-10-07T08:53:20.673Z,6.47
2022-10-07T08:56:09.413Z,5.95
2022-10-07T08:58:52.059Z,7.05
2022-10-07T09:01:35.365Z,5.30
2022-10-07T09:04:20.322Z,5.95
2022-10-07T09:06:59.060Z,5.00
2022-10-07T09:09:37.274Z,5.60
2022-10-07T09:12:19.359Z,5.13
2022-10-07T09:14:57.075Z,4.72
2022-10-07T09:17:36.320Z,5.13
2022-10-07T09:20:17.083Z,4.18
2022-10-07T09:22:57.400Z,4.88
2022-10-07T09:25:35.097Z,4.70
2022-10-07T09:28:14.046Z,4.78
2022-10-07T09:30:48.014Z,4.22
2022-10-07T09:33:23.898Z,3.95
2022-10-07T09:35:59.583Z,4.30
2022-10-07T09:38:36.509Z,3.72
2022-10-07T09:41:19.799Z,3.75
2022-10-07T09:44:00.034Z,3.70
2022-10-07T09:46:46.979Z,3.15
2022-10-07T09:49:42.075Z,3.90
2022-10-07T09:52:21.883Z,3.88
2022-10-07T09:54:59.162Z,3.95
2022-10-07T09:57:36.156Z,3.20
2022-10-07T10:00:25.328Z,3.45
2022-10-07T10:03:05.758Z,2.85
2022-10-07T10:05:42.035Z,2.90
2022-10-07T10:08:24.450Z,2.63
2022-10-07T10:10:59.917Z,3.55
2022-10-07T10:13:35.899Z,3.50
2022-10-07T10:16:36.257Z,3.05
2022-10-07T10:19:25.703Z,3.22
2022-10-07T10:22:00.478Z,2.70
2022-10-07T10:24:52.054Z,3.30
2022-10-07T10:27:32.881Z,3.58
2022-10-07T10:30:10.616Z,2.88
2022-10-07T10:33:07.684Z,3.25
2022-10-07T10:35:49.303Z,2.80
2022-10-07T10:38:38.832Z,3.55
2022-10-07T10:41:24.478Z,4.03
2022-10-07T10:44:34.166Z,4.30
2022-10-07T10:47:19.187Z,3.83
2022-10-07T10:50:06.245Z,4.30
2022-10-07T10:52:53.395Z,3.45
2022-10-07T10:55:41.851Z,3.85
2022-10-07T10:58:26.751Z,3.90
2022-10-07T11:01:12.292Z,3.15
2022-10-07T11:04:15.973Z,3.53
2022-10-07T11:06:57.271Z,3.33
2022-10-07T11:09:38.693Z,3.35
2022-10-07T11:12:23.305Z,3.60
2022-10-07T11:15:02.115Z,3.58
2022-10-07T11:17:37.814Z,3.55
2022-10-07T11:20:20.351Z,2.53
2022-10-07T11:23:03.998Z,2.97
2022-10-07T11:25:43.519Z,3.00
2022-10-07T11:28:22.760Z,2.70
2022-10-07T11:31:04.606Z,2.90
2022-10-07T11:33:47.622Z,3.28
2022-10-07T11:36:26.335Z,3.08
2022-10-07T11:39:02.035Z,2.97
2022-10-07T11:41:43.463Z,2.78
2022-10-07T11:44:22.810Z,2.97
2022-10-07T11:47:01.850Z,2.92
2022-10-07T11:49:41.103Z,2.90
2022-10-07T11:52:24.673Z,3.30
2022-10-07T11:55:08.893Z,3.35
2022-10-07T11:57:44.092Z,2.72
2022-10-07T12:00:26.486Z,3.28
2022-10-07T12:03:14.075Z,2.78
2022-10-07T12:06:07.749Z,2.47
2022-10-07T12:08:43.234Z,2.83
2022-10-07T12:11:51.894Z,2.38
2022-10-07T12:14:42.673Z,2.78
2022-10-07T12:17:28.332Z,2.70
2022-10-07T12:20:45.302Z,2.15
2022-10-07T12:23:43.222Z,2.63
2022-10-07T12:26:52.782Z,3.80
2022-10-07T12:29:45.727Z,3.05
2022-10-07T12:32:46.686Z,2.65
2022-10-07T12:35:51.503Z,2.65
2022-10-07T12:38:29.889Z,2.70
2022-10-07T12:41:25.127Z,2.47
2022-10-07T12:44:04.703Z,2.45
2022-10-07T12:46:47.888Z,2.60
2022-10-07T12:49:27.068Z,3.50
2022-10-07T12:52:04.456Z,2.70
2022-10-07T12:54:43.853Z,3.25
2022-10-07T12:57:23.394Z,3.40
2022-10-07T13:00:02.781Z,3.75
2022-10-07T13:03:18.989Z,3.33
2022-10-07T13:06:28.663Z,3.10
2022-10-07T13:09:38.095Z,3.03
2022-10-07T13:12:26.241Z,2.90
2022-10-07T13:15:16.401Z,3.40
2022-10-07T13:17:56.917Z,2.50
2022-10-07T13:20:53.564Z,3.45
2022-10-07T13:23:30.376Z,3.33
2022-10-07T13:26:06.589Z,2.92
2022-10-07T13:28:47.638Z,2.83
2022-10-07T13:31:23.893Z,2.97
2022-10-07T13:33:59.371Z,2.50
2022-10-07T13:36:43.466Z,2.90
2022-10-07T13:39:23.060Z,3.20
2022-10-07T13:42:00.335Z,2.85
2022-10-07T13:44:35.046Z,2.42
2022-10-07T13:47:12.050Z,3.10
2022-10-07T13:49:48.498Z,3.33
2022-10-07T13:52:30.496Z,3.17
2022-10-07T13:55:04.804Z,2.70
2022-10-07T13:57:44.240Z,2.88
2022-10-07T14:00:18.954Z,2.85
2022-10-07T14:02:53.473Z,2.45
2022-10-07T14:05:28.625Z,3.30
2022-10-07T14:08:14.125Z,2.85
2022-10-07T14:10:54.901Z,2.88
2022-10-07T14:13:31.125Z,3.10
2022-10-07T14:16:05.497Z,3.47
2022-10-07T14:18:45.156Z,3.17
2022-10-07T14:21:19.253Z,2.95
2022-10-07T14:23:53.304Z,2.72
2022-10-07T14:26:44.701Z,3.20
2022-10-07T14:29:41.044Z,3.00
2022-10-07T14:32:40.119Z,3.08
2022-10-07T14:35:21.052Z,3.40
2022-10-07T14:37:55.085Z,3.03
2022-10-07T14:40:29.021Z,3.03
2022-10-07T14:43:05.505Z,3.28
2022-10-07T14:45:42.227Z,2.80
2022-10-07T14:48:16.182Z,3.15
2022-10-07T14:50:51.312Z,3.03
2022-10-07T14:53:25.309Z,3.75
2022-10-07T14:55:59.550Z,3.47
2022-10-07T14:58:34.075Z,3.55
2022-10-07T15:01:09.611Z,3.50
2022-10-07T15:03:43.526Z,3.40
2022-10-07T15:06:18.439Z,2.67
2022-10-07T15:08:52.367Z,3.78
2022-10-07T15:11:26.447Z,3.20
2022-10-07T15:14:00.435Z,3.60
2022-10-07T15:16:35.950Z,3.38
2022-10-07T15:19:09.863Z,3.22
2022-10-07T15:21:43.879Z,3.33
2022-10-07T15:24:19.495Z,3.10
2022-10-07T15:26:53.573Z,3.60
2022-10-07T15:29:27.597Z,3.85
2022-10-07T15:32:03.325Z,3.42
2022-10-07T15:34:38.006Z,3.85
2022-10-07T15:37:12.062Z,3.75
2022-10-07T15:39:45.998Z,3.20
2022-10-07T15:42:20.269Z,3.25
2022-10-07T15:44:54.290Z,3.40
2022-10-07T15:47:30.564Z,3.20
2022-10-07T15:50:04.946Z,3.72
2022-10-07T15:52:38.932Z,3.65
2022-10-07T15:55:12.832Z,3.60
2022-10-07T15:57:46.729Z,3.38
2022-10-07T16:00:22.133Z,3.53
2022-10-07T16:03:03.446Z,4.90
2022-10-07T16:05:38.055Z,4.30
2022-10-07T16:08:12.012Z,3.72
2022-10-07T16:10:46.062Z,3.40
2022-10-07T16:13:20.033Z,3.78
2022-10-07T16:16:03.106Z,3.88
2022-10-07T16:18:40.505Z,4.40
2022-10-07T16:21:15.960Z,4.50
2022-10-07T16:23:51.284Z,4.93
2022-10-07T16:26:30.150Z,4.82
2022-10-07T16:29:24.454Z,4.60
2022-10-07T16:31:59.361Z,5.47
2022-10-07T16:34:35.194Z,5.88
2022-10-07T16:37:09.077Z,5.53
2022-10-07T16:39:43.201Z,6.35
2022-10-07T16:42:17.296Z,5.72
2022-10-07T16:44:51.564Z,7.25
2022-10-07T16:47:25.478Z,7.50
2022-10-07T16:50:00.803Z,8.95
2022-10-07T16:52:35.216Z,9.20
2022-10-07T16:55:10.052Z,8.45
2022-10-07T16:57:44.360Z,8.95
2022-10-07T17:00:18.706Z,9.32
2022-10-07T17:02:52.711Z,10.25
2022-10-07T17:05:28.027Z,10.13
2022-10-07T17:08:01.917Z,10.90
2022-10-07T17:10:36.331Z,10.32
2022-10-07T17:13:10.341Z,9.88
2022-10-07T17:15:46.203Z,10.68
2022-10-07T17:18:24.728Z,10.15
2022-10-07T17:21:00.603Z,10.10
2022-10-07T17:23:36.112Z,9.93
2022-10-07T17:26:10.345Z,10.23
2022-10-07T17:28:44.570Z,11.07
2022-10-07T17:31:19.367Z,11.80
2022-10-07T17:33:53.591Z,10.23
2022-10-07T17:36:29.346Z,10.60
2022-10-07T17:39:03.733Z,11.65
2022-10-07T17:41:38.867Z,11.38
2022-10-07T17:44:14.114Z,11.05
2022-10-07T17:46:49.124Z,11.10
2022-10-07T17:49:23.156Z,11.00
2022-10-07T17:51:58.718Z,13.05
2022-10-07T17:54:32.838Z,10.68
2022-10-07T17:57:06.799Z,11.07
2022-10-07T17:59:40.777Z,11.98
2022-10-07T18:02:14.741Z,12.45
2022-10-07T18:04:49.354Z,10.93
2022-10-07T18:07:24.805Z,12.70
2022-10-07T18:09:58.762Z,12.73
2022-10-07T18:12:50.306Z,13.05
2022-10-07T18:15:24.219Z,10.90
2022-10-07T18:17:58.235Z,12.52
2022-10-07T18:20:32.136Z,11.50
2022-10-07T18:23:07.464Z,12.20
2022-10-07T18:25:41.454Z,12.93
2022-10-07T18:28:15.786Z,12.65
2022-10-07T18:30:49.788Z,11.68
2022-10-07T18:33:23.878Z,11.20
2022-10-07T18:36:02.088Z,12.18
2022-10-07T18:38:39.474Z,12.98
2022-10-07T18:41:15.674Z,11.38
2022-10-07T18:43:50.010Z,12.07
2022-10-07T18:46:24.477Z,11.15
2022-10-07T18:48:58.422Z,10.40
2022-10-07T18:51:32.375Z,11.40
2022-10-07T18:54:07.947Z,12.02
2022-10-07T18:56:42.005Z,11.35
2022-10-07T18:59:16.259Z,11.80
2022-10-07T19:01:51.144Z,12.32
2022-10-07T19:04:25.557Z,10.20
2022-10-07T19:06:59.500Z,12.70
2022-10-07T19:09:35.044Z,11.65
2022-10-07T19:12:28.965Z,12.98
2022-10-07T19:15:01.858Z,12.68
2022-10-07T19:17:35.710Z,12.40
2022-10-07T19:22:43.397Z,11.10
2022-10-07T19:25:36.140Z,11.60
2022-10-07T19:28:10.002Z,11.75
2022-10-07T19:30:45.297Z,10.55
2022-10-07T19:33:19.181Z,11.55
2022-10-07T19:35:55.924Z,11.10
2022-10-07T19:38:29.748Z,10.57
2022-10-07T19:43:42.466Z,11.73
2022-10-07T19:46:17.102Z,11.55
2022-10-07T19:48:51.301Z,11.18
2022-10-07T19:51:26.497Z,11.73
2022-10-07T19:54:02.584Z,12.35
2022-10-07T19:56:38.152Z,11.63
2022-10-07T19:59:14.133Z,11.23
2022-10-07T20:01:49.729Z,10.57
2022-10-07T20:04:24.582Z,11.32
2022-10-07T20:06:59.170Z,10.98
2022-10-07T20:09:33.070Z,10.75
2022-10-07T20:12:08.425Z,11.20
2022-10-07T20:14:42.323Z,10.38
2022-10-07T20:17:16.273Z,12.35
2022-10-07T20:19:50.168Z,11.63
2022-10-07T20:22:24.047Z,11.82
2022-10-07T20:24:57.974Z,11.23
2022-10-07T20:27:33.617Z,11.00
2022-10-07T20:30:17.570Z,11.65
2022-10-07T20:32:52.914Z,12.68
2022-10-07T20:35:31.753Z,11.55
2022-10-07T20:38:07.757Z,11.45
2022-10-07T20:40:59.245Z,11.70
2022-10-07T20:43:34.627Z,11.75
2022-10-07T20:46:08.895Z,11.18
2022-10-07T20:48:45.679Z,10.52
2022-10-07T20:51:21.345Z,10.68
2022-10-07T20:53:55.406Z,11.20
2022-10-07T20:56:29.382Z,9.38
2022-10-07T20:59:04.694Z,10.43
2022-10-07T21:01:40.421Z,9.35
2022-10-07T21:04:16.563Z,10.23
2022-10-07T21:06:51.849Z,8.68
2022-10-07T21:09:26.413Z,10.23
2022-10-07T21:12:00.402Z,9.23
2022-10-07T21:14:35.941Z,8.93
2022-10-07T21:17:10.113Z,9.23
2022-10-07T21:19:44.208Z,9.55
2022-10-07T21:22:18.071Z,9.18
2022-10-07T21:27:25.556Z,9.68
2022-10-07T21:30:00.817Z,9.20
2022-10-07T21:32:34.676Z,9.90
2022-10-07T21:37:42.555Z,8.88
2022-10-07T21:40:16.661Z,9.60
2022-10-07T21:42:50.518Z,8.52
2022-10-07T21:47:59.494Z,10.30
2022-10-07T21:50:33.315Z,9.70
2022-10-07T21:55:40.671Z,9.70
2022-10-07T21:58:26.927Z,8.90
2022-10-07T22:01:15.670Z,9.07
2022-10-07T22:03:54.022Z,11.00
2022-10-07T22:07:00.978Z,9.88
2022-10-07T22:09:35.832Z,9.32
2022-10-07T22:12:10.155Z,9.40
2022-10-07T22:14:44.692Z,8.90
2022-10-07T22:17:19.981Z,9.80
2022-10-07T22:19:53.915Z,9.23
2022-10-07T22:22:28.648Z,9.63
2022-10-07T22:25:02.552Z,9.75
2022-10-07T22:27:36.506Z,10.20
2022-10-07T22:30:11.635Z,9.43
2022-10-07T22:32:47.278Z,8.57
2022-10-07T22:35:33.760Z,10.40
2022-10-07T22:38:08.703Z,9.60
2022-10-07T22:40:42.543Z,9.95
2022-10-07T22:45:57.518Z,9.48
2022-10-07T22:48:34.629Z,8.70
2022-10-07T22:51:10.520Z,8.93
2022-10-07T22:53:46.664Z,8.05
2022-10-07T22:56:21.073Z,9.40
2022-10-07T22:58:58.172Z,8.32
2022-10-07T23:01:32.617Z,8.55
2022-10-07T23:04:08.132Z,7.95
2022-10-07T23:06:41.964Z,7.97
2022-10-07T23:11:49.297Z,8.27
2022-10-07T23:16:57.035Z,8.48
2022-10-07T23:19:32.250Z,8.02
2022-10-07T23:22:07.455Z,8.30
2022-10-07T23:24:41.300Z,7.32
2022-10-07T23:29:49.692Z,8.25
2022-10-07T23:32:23.500Z,7.28
2022-10-07T23:37:32.670Z,7.88
2022-10-07T23:42:40.540Z,7.05
2022-10-07T23:47:48.467Z,7.22
2022-10-07T23:52:57.216Z,7.55
2022-10-07T23:58:04.550Z,6.77
